createdAt,value
2022-09-13T00:01:14.711Z,66.51
2022-09-13T00:03:42.586Z,67.65
2022-09-13T00:06:13.086Z,67.67
2022-09-13T00:08:43.197Z,67.69
2022-09-13T00:11:24.770Z,67.68
2022-09-13T00:13:53.239Z,68.75
2022-09-13T00:16:23.167Z,67.38
2022-09-13T00:18:51.644Z,67.63
2022-09-13T00:21:21.423Z,67.31
2022-09-13T00:23:51.916Z,67.61
2022-09-13T00:26:24.078Z,67.91
2022-09-13T00:28:53.497Z,67.19
2022-09-13T00:31:26.028Z,66.53
2022-09-13T00:33:54.525Z,65.98
2022-09-13T00:36:22.039Z,66.76
2022-09-13T00:38:49.559Z,66.25
2022-09-13T00:41:19.942Z,65.91
2022-09-13T00:43:52.297Z,64.80
2022-09-13T00:46:44.210Z,64.71
2022-09-13T00:49:24.329Z,64.44
2022-09-13T00:52:01.927Z,63.77
2022-09-13T00:54:42.446Z,62.61
2022-09-13T00:57:13.517Z,64.83
2022-09-13T00:59:48.106Z,66.45
2022-09-13T01:02:15.917Z,66.43
2022-09-13T01:04:44.323Z,66.02
2022-09-13T01:07:15.299Z,66.05
2022-09-13T01:09:45.888Z,66.40
2022-09-13T01:12:26.643Z,66.52
2022-09-13T01:14:57.551Z,68.43
2022-09-13T01:17:27.544Z,68.22
2022-09-13T01:19:55.206Z,68.35
2022-09-13T01:22:33.310Z,69.21
2022-09-13T01:25:20.905Z,68.36
2022-09-13T01:28:00.847Z,66.59
2022-09-13T01:30:57.633Z,66.33
2022-09-13T01:33:59.933Z,67.77
2022-09-13T01:36:47.459Z,67.31
2022-09-13T01:39:22.335Z,67.58
2022-09-13T01:42:17.588Z,69.64
2022-09-13T01:44:58.556Z,69.93
2022-09-13T01:47:38.919Z,70.46
2022-09-13T01:50:11.269Z,71.09
2022-09-13T01:52:52.688Z,71.87
2022-09-13T01:55:59.149Z,70.97
2022-09-13T01:58:49.843Z,70.65
2022-09-13T02:01:24.376Z,69.38
2022-09-13T02:03:55.844Z,68.75
2022-09-13T02:06:50.070Z,68.26
2022-09-13T02:09:28.317Z,67.07
2022-09-13T02:12:08.376Z,67.99
2022-09-13T02:14:39.144Z,69.33
2022-09-13T02:17:12.882Z,68.42
2022-09-13T02:20:06.474Z,70.01
2022-09-13T02:22:39.317Z,70.70
2022-09-13T02:25:10.638Z,70.98
2022-09-13T02:27:41.459Z,71.52
2022-09-13T02:30:11.495Z,74.47
2022-09-13T02:33:01.963Z,76.61
2022-09-13T02:35:37.856Z,75.79
2022-09-13T02:38:13.071Z,75.38
2022-09-13T02:40:49.597Z,74.23
2022-09-13T02:43:29.217Z,71.49
2022-09-13T02:46:20.602Z,70.96
2022-09-13T02:49:26.542Z,73.23
2022-09-13T02:51:56.258Z,74.43
2022-09-13T02:54:37.314Z,74.34
2022-09-13T02:57:53.961Z,73.91
2022-09-13T03:00:22.034Z,73.98
2022-09-13T03:02:55.045Z,74.68
2022-09-13T03:05:23.054Z,74.82
2022-09-13T03:07:51.623Z,73.99
2022-09-13T03:10:20.594Z,73.62
2022-09-13T03:13:20.839Z,71.53
2022-09-13T03:15:55.930Z,73.42
2022-09-13T03:18:41.621Z,72.94
2022-09-13T03:21:14.782Z,72.66
2022-09-13T03:24:11.837Z,73.05
2022-09-13T03:26:49.750Z,73.29
2022-09-13T03:29:37.694Z,76.58
2022-09-13T03:32:27.167Z,79.05
2022-09-13T03:35:19.075Z,82.17
2022-09-13T03:38:05.810Z,81.62
2022-09-13T03:40:33.320Z,80.75
2022-09-13T03:43:13.755Z,80.06
2022-09-13T03:45:50.294Z,78.34
2022-09-13T03:48:18.714Z,79.25
2022-09-13T03:50:48.144Z,83.77
2022-09-13T03:53:22.076Z,85.93
2022-09-13T03:55:49.701Z,81.57
2022-09-13T03:58:19.379Z,79.72
2022-09-13T04:00:47.126Z,77.82
2022-09-13T04:03:15.311Z,77.96
2022-09-13T04:05:42.766Z,79.64
2022-09-13T04:08:10.265Z,78.01
2022-09-13T04:10:37.855Z,78.38
2022-09-13T04:13:06.662Z,79.15
2022-09-13T04:15:34.649Z,80.69
2022-09-13T04:18:02.217Z,81.82
2022-09-13T04:20:29.975Z,85.26
2022-09-13T04:23:00.720Z,89.08
2022-09-13T04:25:28.211Z,89.15
2022-09-13T04:27:56.545Z,89.26
2022-09-13T04:30:24.015Z,89.37
2022-09-13T04:32:51.776Z,87.83
2022-09-13T04:35:20.037Z,88.55
2022-09-13T04:37:47.517Z,87.12
2022-09-13T04:40:15.263Z,85.66
2022-09-13T04:42:44.799Z,86.99
2022-09-13T04:45:12.447Z,88.27
2022-09-13T04:47:39.907Z,86.83
2022-09-13T04:50:10.269Z,87.29
2022-09-13T04:52:39.939Z,86.21
2022-09-13T04:55:07.858Z,87.92
2022-09-13T04:57:35.362Z,88.34
2022-09-13T05:00:03.475Z,88.43
2022-09-13T05:02:31.455Z,88.41
2022-09-13T05:04:59.085Z,87.06
2022-09-13T05:07:28.833Z,85.62
2022-09-13T05:09:56.527Z,86.63
2022-09-13T05:12:24.150Z,90.81
2022-09-13T05:14:51.647Z,91.00
2022-09-13T05:17:19.283Z,87.82
2022-09-13T05:19:47.009Z,86.63
2022-09-13T05:22:14.556Z,87.11
2022-09-13T05:24:43.198Z,86.05
2022-09-13T05:27:13.017Z,84.96
2022-09-13T05:29:41.250Z,84.74
2022-09-13T05:32:08.810Z,84.82
2022-09-13T05:34:36.373Z,84.63
2022-09-13T05:37:04.093Z,84.29
2022-09-13T05:39:48.369Z,85.34
2022-09-13T05:42:19.489Z,84.78
2022-09-13T05:44:47.113Z,85.48
2022-09-13T05:47:14.725Z,86.89
2022-09-13T05:50:08.355Z,85.70
2022-09-13T05:52:29.841Z,87.66
2022-09-13T05:54:57.414Z,87.16
2022-09-13T05:57:24.967Z,89.03
2022-09-13T05:59:52.637Z,87.37
2022-09-13T06:02:20.253Z,85.76
2022-09-13T06:04:50.723Z,85.27
2022-09-13T06:07:18.699Z,79.66
2022-09-13T06:09:46.231Z,80.99
2022-09-13T06:12:14.004Z,83.42
2022-09-13T06:14:41.798Z,78.17
2022-09-13T06:17:15.134Z,76.55
2022-09-13T06:19:43.663Z,75.96
2022-09-13T06:22:11.368Z,79.02
2022-09-13T06:24:41.327Z,74.13
2022-09-13T06:27:10.444Z,72.94
2022-09-13T06:29:38.019Z,74.71
2022-09-13T06:37:45.618Z,71.86
2022-09-13T06:45:11.340Z,71.63
2022-09-13T06:47:39.953Z,72.65
2022-09-13T06:50:14.380Z,75.01
2022-09-13T06:52:44.305Z,72.54
2022-09-13T06:59:04.223Z,74.35
2022-09-13T07:02:11.902Z,69.44
2022-09-13T07:36:46.055Z,41.00
2022-09-13T07:39:22.016Z,39.51
2022-09-13T07:41:57.375Z,40.62
2022-09-13T07:44:47.995Z,38.28
2022-09-13T07:48:34.811Z,43.09
2022-09-13T07:51:05.801Z,43.47
2022-09-13T07:53:46.188Z,39.77
2022-09-13T07:56:41.931Z,41.24
2022-09-13T08:00:05.959Z,43.56
2022-09-13T08:02:55.069Z,41.60
2022-09-13T08:08:55.424Z,39.66
2022-09-13T08:11:26.218Z,43.09
2022-09-13T08:14:18.402Z,40.81
2022-09-13T08:16:46.162Z,42.16
2022-09-13T08:19:18.471Z,42.28
2022-09-13T08:21:47.060Z,39.74
2022-09-13T08:24:23.577Z,38.79
2022-09-13T08:26:52.298Z,38.90
2022-09-13T08:29:20.019Z,38.70
2022-09-13T08:31:57.269Z,40.03
2022-09-13T08:34:24.981Z,36.15
2022-09-13T08:36:52.515Z,37.16
2022-09-13T08:39:20.081Z,35.18
2022-09-13T08:42:11.031Z,32.62
2022-09-13T08:44:50.578Z,36.32
2022-09-13T08:47:36.220Z,38.64
2022-09-13T08:50:23.650Z,36.63
2022-09-13T08:53:07.298Z,37.67
2022-09-13T08:55:43.314Z,38.98
2022-09-13T08:58:43.060Z,42.13
2022-09-13T09:01:22.638Z,39.49
2022-09-13T09:04:08.846Z,39.24
2022-09-13T09:06:36.970Z,34.46
2022-09-13T09:09:07.789Z,41.55
2022-09-13T09:12:21.676Z,39.74
2022-09-13T09:15:03.798Z,38.34
2022-09-13T09:17:55.942Z,43.12
2022-09-13T09:20:28.872Z,42.02
2022-09-13T09:22:56.433Z,44.63
2022-09-13T09:25:26.817Z,38.11
2022-09-13T09:27:55.784Z,37.49
2022-09-13T09:30:56.402Z,36.53
2022-09-13T09:33:55.194Z,37.62
2022-09-13T09:36:44.721Z,36.74
2022-09-13T09:39:16.437Z,37.01
2022-09-13T09:41:47.873Z,36.17
2022-09-13T09:44:23.767Z,35.27
2022-09-13T09:46:57.819Z,36.14
2022-09-13T09:50:10.117Z,34.74
2022-09-13T09:53:03.169Z,38.96
2022-09-13T09:55:35.064Z,40.65
2022-09-13T09:58:06.537Z,37.84
2022-09-13T10:00:58.178Z,36.50
2022-09-13T10:03:31.810Z,39.72
2022-09-13T10:06:13.129Z,42.64
2022-09-13T10:09:16.720Z,41.01
2022-09-13T10:11:54.034Z,44.82
2022-09-13T10:15:15.551Z,43.34
2022-09-13T10:17:51.029Z,43.28
2022-09-13T10:20:23.484Z,45.70
2022-09-13T10:23:23.596Z,47.23
2022-09-13T10:26:02.883Z,43.30
2022-09-13T10:28:35.281Z,49.41
2022-09-13T10:31:16.874Z,46.28
2022-09-13T10:34:01.562Z,44.75
2022-09-13T10:39:23.565Z,43.50
2022-09-13T10:41:59.792Z,44.65
2022-09-13T10:44:47.014Z,46.22
2022-09-13T10:47:22.342Z,43.38
2022-09-13T10:49:57.172Z,44.38
2022-09-13T10:52:43.566Z,45.57
2022-09-13T10:55:29.158Z,43.29
2022-09-13T10:58:17.565Z,47.05
2022-09-13T11:01:50.060Z,47.38
2022-09-13T11:05:20.099Z,48.43
2022-09-13T11:08:09.071Z,45.59
2022-09-13T11:10:43.774Z,49.40
2022-09-13T11:13:34.862Z,46.88
2022-09-13T11:16:20.384Z,49.14
2022-09-13T11:19:08.765Z,49.56
2022-09-13T11:22:18.791Z,47.19
2022-09-13T11:25:23.298Z,47.21
2022-09-13T11:28:08.349Z,49.31
2022-09-13T11:30:41.511Z,47.59
2022-09-13T11:33:49.627Z,49.91
2022-09-13T11:36:58.177Z,44.91
2022-09-13T11:39:32.931Z,43.16
2022-09-13T11:42:00.467Z,42.55
2022-09-13T11:45:30.669Z,45.38
2022-09-13T11:48:17.248Z,52.38
2022-09-13T11:50:50.623Z,50.91
2022-09-13T11:54:01.830Z,45.17
2022-09-13T11:56:39.010Z,45.48
2022-09-13T11:59:26.796Z,43.93
2022-09-13T12:02:03.343Z,45.64
2022-09-13T12:04:42.266Z,44.68
2022-09-13T12:07:19.381Z,45.16
2022-09-13T12:10:02.627Z,41.87
2022-09-13T12:12:36.932Z,41.88
2022-09-13T12:15:17.690Z,43.09
2022-09-13T12:17:53.368Z,46.46
2022-09-13T12:21:17.077Z,43.15
2022-09-13T12:27:43.218Z,44.20
2022-09-13T12:30:21.062Z,43.16
2022-09-13T12:32:49.581Z,42.41
2022-09-13T12:35:30.297Z,45.41
2022-09-13T12:38:29.374Z,42.79
2022-09-13T12:41:25.699Z,42.58
2022-09-13T12:44:14.800Z,43.68
2022-09-13T12:47:39.187Z,44.08
2022-09-13T12:53:32.937Z,39.43
2022-09-13T12:56:11.034Z,40.50
2022-09-13T12:58:56.673Z,40.79
2022-09-13T13:01:34.647Z,41.17
2022-09-13T13:04:10.901Z,40.47
2022-09-13T13:07:34.753Z,42.43
2022-09-13T13:13:55.648Z,41.72
2022-09-13T13:19:41.806Z,42.54
2022-09-13T13:29:08.424Z,46.27
2022-09-13T13:34:53.624Z,41.48
2022-09-13T13:40:29.753Z,42.39
2022-09-13T13:49:39.554Z,43.22
2022-09-13T14:35:42.264Z,43.20
2022-09-13T15:11:53.190Z,40.93
2022-09-13T15:31:33.596Z,44.92
2022-09-13T15:34:22.006Z,44.12
2022-09-13T15:37:01.715Z,43.54
2022-09-13T15:39:29.554Z,46.67
2022-09-13T15:42:00.105Z,49.40
2022-09-13T15:44:32.722Z,47.48
2022-09-13T15:47:04.063Z,50.10
2022-09-13T16:12:34.302Z,57.23
2022-09-13T16:20:21.636Z,60.22
2022-09-13T16:22:53.102Z,59.51
2022-09-13T16:28:24.585Z,57.37
2022-09-13T16:30:42.183Z,51.87
2022-09-13T16:34:33.963Z,50.81
2022-09-13T16:41:11.671Z,50.72
2022-09-13T16:44:55.211Z,47.34
2022-09-13T16:51:06.728Z,50.74
2022-09-13T16:53:38.310Z,52.96
2022-09-13T16:56:12.368Z,49.55
2022-09-13T16:58:41.626Z,52.54
2022-09-13T17:01:14.827Z,54.55
2022-09-13T17:03:54.031Z,57.09
2022-09-13T17:06:24.044Z,57.71
2022-09-13T17:09:04.495Z,55.45
2022-09-13T17:11:35.349Z,57.00
2022-09-13T17:14:05.184Z,57.79
2022-09-13T17:16:54.119Z,59.30
2022-09-13T17:19:25.979Z,59.76
2022-09-13T17:21:57.444Z,58.28
2022-09-13T17:24:27.102Z,60.17
2022-09-13T17:26:56.877Z,60.24
2022-09-13T17:29:31.689Z,57.21
2022-09-13T17:32:01.469Z,59.76
2022-09-13T17:34:32.104Z,58.33
2022-09-13T17:37:50.013Z,60.85
2022-09-13T17:40:20.219Z,60.56
2022-09-13T17:42:51.163Z,55.77
2022-09-13T17:45:19.470Z,59.21
2022-09-13T17:47:53.168Z,57.96
2022-09-13T17:50:33.444Z,59.78
2022-09-13T17:53:08.492Z,60.70
2022-09-13T17:55:49.821Z,61.37
2022-09-13T17:58:22.219Z,62.80
2022-09-13T18:01:04.543Z,63.58
2022-09-13T18:03:36.604Z,63.11
2022-09-13T18:07:14.664Z,60.76
2022-09-13T18:09:43.466Z,61.30
2022-09-13T18:12:11.943Z,63.55
2022-09-13T18:16:04.523Z,62.72
2022-09-13T18:18:35.063Z,61.25
2022-09-13T18:21:09.537Z,61.08
2022-09-13T18:23:37.199Z,60.71
2022-09-13T18:26:11.771Z,62.10
2022-09-13T18:28:45.306Z,62.08
2022-09-13T18:31:24.214Z,61.20
2022-09-13T18:34:00.505Z,60.20
2022-09-13T18:36:31.127Z,61.47
2022-09-13T18:39:05.060Z,61.99
2022-09-13T18:41:40.388Z,61.38
2022-09-13T18:44:21.123Z,60.82
2022-09-13T18:46:50.672Z,60.55
2022-09-13T18:49:25.164Z,60.98
2022-09-13T18:51:58.127Z,60.42
2022-09-13T18:54:35.677Z,59.55
2022-09-13T18:57:03.654Z,59.86
2022-09-13T18:59:38.863Z,59.38
2022-09-13T19:02:29.168Z,60.28
2022-09-13T19:16:32.703Z,63.36
2022-09-13T19:19:04.886Z,62.54
2022-09-13T19:19:20.771Z,63.78
2022-09-13T19:21:51.218Z,63.30
2022-09-13T19:30:48.096Z,63.77
2022-09-13T19:37:20.866Z,65.39
2022-09-13T19:49:26.984Z,63.69
2022-09-13T20:41:00.932Z,70.03
2022-09-13T20:43:49.226Z,70.07
2022-09-13T20:46:36.461Z,69.25
2022-09-13T20:49:05.646Z,69.47
2022-09-13T21:16:48.845Z,69.86
2022-09-13T21:19:16.401Z,69.68
2022-09-13T21:21:44.053Z,69.88
2022-09-13T21:24:12.760Z,69.33
2022-09-13T21:26:42.478Z,69.58
2022-09-13T21:29:14.436Z,69.87
2022-09-13T21:31:42.474Z,70.21
2022-09-13T21:34:20.216Z,70.83
2022-09-13T21:36:53.719Z,70.70
2022-09-13T21:39:21.435Z,71.02
2022-09-13T21:41:49.622Z,70.90
2022-09-13T21:44:19.672Z,70.82
2022-09-13T21:46:47.307Z,70.04
2022-09-13T21:49:15.907Z,71.86
2022-09-13T21:51:46.639Z,69.54
2022-09-13T21:54:19.437Z,69.83
2022-09-13T21:56:54.900Z,70.43
2022-09-13T21:59:29.732Z,70.19
2022-09-13T22:02:32.086Z,69.87
2022-09-13T22:05:28.468Z,70.88
2022-09-13T22:08:22.075Z,69.87
2022-09-13T22:10:57.282Z,70.34
2022-09-13T22:13:31.423Z,71.36
2022-09-13T22:16:10.949Z,70.99
2022-09-13T22:18:42.560Z,70.03
2022-09-13T22:21:19.211Z,71.09
2022-09-13T22:23:49.787Z,71.13
2022-09-13T22:26:24.311Z,70.59
2022-09-13T22:28:55.891Z,70.13
2022-09-13T22:31:43.145Z,69.86
2022-09-13T22:34:22.051Z,68.31
2022-09-13T22:37:00.445Z,68.07
2022-09-13T22:39:32.017Z,68.31
2022-09-13T22:42:00.580Z,66.36
2022-09-13T22:44:33.423Z,66.96
2022-09-13T22:47:07.519Z,65.56
2022-09-13T22:49:41.207Z,66.81
2022-09-13T22:52:09.243Z,67.56
2022-09-13T22:54:39.075Z,67.39
2022-09-13T22:57:09.363Z,66.80
2022-09-13T22:59:37.188Z,67.50
2022-09-13T23:02:04.898Z,66.96
2022-09-13T23:04:35.011Z,66.62
2022-09-13T23:07:12.478Z,68.69
2022-09-13T23:09:41.417Z,69.21
2022-09-13T23:12:15.033Z,68.97
2022-09-13T23:14:45.409Z,68.06
2022-09-13T23:17:18.875Z,68.51
2022-09-13T23:19:46.592Z,68.91
2022-09-13T23:22:25.321Z,68.31
2022-09-13T23:25:00.359Z,67.63
2022-09-13T23:27:28.171Z,67.93
2022-09-13T23:37:31.239Z,67.93
2022-09-13T23:41:28.878Z,68.05
2022-09-13T23:44:09.140Z,67.38
2022-09-13T23:46:50.841Z,67.34
2022-09-13T23:50:02.870Z,67.45
2022-09-13T23:52:48.185Z,66.56
2022-09-13T23:55:41.747Z,66.25
2022-09-13T23:58:11.826Z,68.10
